Time;durP1;ratioP1;P1;durP2;ratioP2;P2;SDS_P1;SDS_P2;PMS_P1;PMS_P2;Temp;Humidity;BMP_temperature;BMP_pressure;BME280_temperature;BME280_humidity;BME280_pressure;Samples;Min_cycle;Max_cycle;Signal;HPM_P1;HPM_P2
2021/12/08 00:00:47;;;;;;;7.00;3.40;;;3.00;1.00;;;;;;5078373;28;20764;-64
2021/12/08 00:03:18;;;;;;;4.87;2.60;;;3.10;77.70;;;;;;5076921;28;20492;-64
2021/12/08 00:05:48;;;;;;;13.83;2.50;;;3.20;99.90;;;;;;5077791;28;20465;-65
2021/12/08 00:08:17;;;;;;;3.97;2.70;;;3.30;1.00;;;;;;5077551;28;20472;-65
2021/12/08 00:13:36;;;;;;;7.50;3.17;;;3.40;99.90;;;;;;5077380;28;20448;-65
2021/12/08 00:16:06;;;;;;;4.40;2.73;;;3.50;1.00;;;;;;5077895;28;20532;-66
2021/12/08 00:18:34;;;;;;;2.97;2.30;;;3.60;1.00;;;;;;5078977;28;20504;-65
2021/12/08 00:21:05;;;;;;;3.60;2.53;;;3.70;1.00;;;;;;5078538;28;20500;-66
2021/12/08 00:23:32;;;;;;;3.20;2.13;;;3.70;1.00;;;;;;5077777;28;20580;-65
2021/12/08 00:26:03;;;;;;;7.57;2.57;;;3.80;1.00;;;;;;5078131;28;20440;-65
2021/12/08 00:28:31;;;;;;;3.80;2.40;;;3.90;99.90;;;;;;5078852;28;20457;-65
2021/12/08 00:31:02;;;;;;;3.40;2.33;;;3.90;99.90;;;;;;5077992;28;20461;-64
2021/12/08 00:33:30;;;;;;;3.70;2.53;;;4.00;99.90;;;;;;5077611;28;20457;-64
2021/12/08 00:36:00;;;;;;;6.00;3.67;;;4.00;99.90;;;;;;5078634;28;20461;-65
2021/12/08 00:38:28;;;;;;;4.63;2.53;;;4.00;99.90;;;;;;5078540;28;20456;-63
2021/12/08 00:40:56;;;;;;;4.37;2.33;;;4.00;99.90;;;;;;5078071;28;20466;-63
2021/12/08 00:43:25;;;;;;;4.33;2.53;;;4.00;99.90;;;;;;5077493;28;20948;-65
2021/12/08 00:45:52;;;;;;;3.93;2.20;;;3.90;99.90;;;;;;5077582;28;20482;-64
2021/12/08 00:48:31;;;;;;;4.13;2.37;;;3.90;99.90;;;;;;5080067;28;20492;-64
2021/12/08 00:50:58;;;;;;;3.90;2.30;;;3.90;1.00;;;;;;5078251;28;20526;-63
2021/12/08 00:53:28;;;;;;;4.17;3.03;;;3.90;99.90;;;;;;5077472;28;20505;-63
2021/12/08 00:55:55;;;;;;;5.37;3.00;;;3.80;1.00;;;;;;5077171;28;20465;-63
2021/12/08 00:58:22;;;;;;;4.03;2.87;;;3.70;1.60;;;;;;5077719;28;20948;-64
2021/12/08 01:00:52;;;;;;;3.47;3.00;;;3.70;99.90;;;;;;5077670;28;20461;-64
2021/12/08 01:03:22;;;;;;;4.03;2.77;;;3.60;1.00;;;;;;5078037;28;20527;-63
2021/12/08 01:05:55;;;;;;;6.20;2.87;;;3.50;99.90;;;;;;5077201;28;20540;-64
2021/12/08 01:08:24;;;;;;;4.30;3.40;;;3.40;99.90;;;;;;5077649;28;20465;-64
2021/12/08 01:10:53;;;;;;;7.80;3.30;;;3.30;1.00;;;;;;5077446;28;20511;-63
2021/12/08 01:13:22;;;;;;;3.20;2.87;;;3.30;99.90;;;;;;5076912;28;20518;-64
2021/12/08 01:15:54;;;;;;;5.90;3.20;;;3.20;1.00;;;;;;5075183;28;20903;-64
2021/12/08 01:18:27;;;;;;;6.53;3.57;;;3.20;1.00;;;;;;5077358;28;20523;-64
2021/12/08 01:20:56;;;;;;;4.07;3.10;;;3.10;25.30;;;;;;5077261;28;20990;-63
2021/12/08 01:23:24;;;;;;;4.60;3.50;;;3.10;99.90;;;;;;5077241;28;20497;-61
2021/12/08 01:25:55;;;;;;;6.77;3.90;;;3.00;99.90;;;;;;5076581;28;20465;-63
2021/12/08 01:28:23;;;;;;;4.73;3.80;;;3.10;99.90;;;;;;5077346;28;20465;-64
2021/12/08 01:30:52;;;;;;;5.27;3.33;;;3.10;99.90;;;;;;5077424;28;20492;-64
2021/12/08 01:33:23;;;;;;;4.30;3.40;;;3.00;99.90;;;;;;5077238;28;20802;-65
2021/12/08 01:35:52;;;;;;;3.73;3.43;;;3.00;99.90;;;;;;5076532;28;20469;-63
2021/12/08 01:38:19;;;;;;;4.27;3.30;;;3.10;99.90;;;;;;5077072;28;20511;-61
2021/12/08 01:40:46;;;;;;;6.30;3.30;;;3.00;99.90;;;;;;5076728;28;20973;-64
2021/12/08 01:43:24;;;;;;;4.37;3.97;;;3.10;99.90;;;;;;5076481;28;20501;-65
2021/12/08 01:45:59;;;;;;;9.00;4.10;;;3.10;99.90;;;;;;5076732;28;20492;-64
2021/12/08 01:48:30;;;;;;;6.87;3.43;;;3.20;99.90;;;;;;5084082;28;20452;-64
2021/12/08 01:51:03;;;;;;;3.43;3.03;;;3.20;99.90;;;;;;5076621;28;20915;-64
2021/12/08 01:53:30;;;;;;;5.00;3.10;;;3.20;99.90;;;;;;5076610;28;20912;-65
2021/12/08 01:55:58;;;;;;;7.10;3.77;;;3.20;99.90;;;;;;5077062;28;20868;-65
2021/12/08 01:58:26;;;;;;;8.03;4.00;;;3.30;99.90;;;;;;5076494;28;20457;-64
2021/12/08 02:00:57;;;;;;;4.77;3.80;;;3.30;99.90;;;;;;5076556;28;20484;-64
2021/12/08 02:03:27;;;;;;;4.57;4.17;;;3.40;99.90;;;;;;5076893;28;20935;-64
2021/12/08 02:05:56;;;;;;;7.97;3.70;;;3.40;99.90;;;;;;5075681;28;20552;-65
2021/12/08 02:08:25;;;;;;;7.23;3.27;;;3.40;99.90;;;;;;5076615;28;20476;-64
2021/12/08 02:10:52;;;;;;;5.53;3.83;;;3.50;99.90;;;;;;5075473;28;20530;-64
2021/12/08 02:13:19;;;;;;;6.20;3.93;;;3.50;99.90;;;;;;5077014;28;20457;-65
2021/12/08 02:15:47;;;;;;;6.20;4.00;;;3.60;99.90;;;;;;5076449;28;20911;-64
2021/12/08 02:18:17;;;;;;;5.00;3.87;;;3.60;99.90;;;;;;5076346;28;20465;-65
2021/12/08 02:20:47;;;;;;;5.40;3.57;;;3.70;99.90;;;;;;5076753;28;20457;-65
2021/12/08 02:23:17;;;;;;;6.50;3.50;;;3.70;99.90;;;;;;5076348;28;20492;-64
2021/12/08 02:25:45;;;;;;;5.13;3.87;;;3.80;99.90;;;;;;5075433;28;20504;-64
2021/12/08 02:28:15;;;;;;;5.23;4.13;;;3.80;99.90;;;;;;5076321;28;20461;-64
2021/12/08 02:30:47;;;;;;;6.23;3.77;;;3.80;99.90;;;;;;5062832;28;20454;-64
2021/12/08 02:47:10;;;;;;;6.07;3.70;;;3.90;99.90;;;;;;5075569;28;20507;-65
2021/12/08 02:49:38;;;;;;;4.20;3.33;;;3.90;99.90;;;;;;5075794;28;20465;-65
2021/12/08 02:52:08;;;;;;;9.10;5.07;;;3.90;99.90;;;;;;5063662;28;20457;-65
2021/12/08 02:54:40;;;;;;;4.27;3.70;;;4.00;99.90;;;;;;5058183;28;20462;-64
2021/12/08 02:57:07;;;;;;;3.63;3.30;;;4.00;99.90;;;;;;5079894;28;20515;-65
2021/12/08 02:59:35;;;;;;;6.00;4.10;;;4.10;90.00;;;;;;5079663;28;20461;-64
2021/12/08 03:02:03;;;;;;;5.03;3.83;;;4.10;72.20;;;;;;5080139;28;20975;-64
2021/12/08 03:04:30;;;;;;;4.27;3.30;;;4.10;99.50;;;;;;5079886;28;20485;-64
2021/12/08 03:06:57;;;;;;;3.80;3.50;;;4.20;99.90;;;;;;5079709;28;20465;-64
2021/12/08 03:09:25;;;;;;;3.60;3.27;;;4.20;96.50;;;;;;5079939;28;20926;-64
2021/12/08 03:11:55;;;;;;;3.70;3.20;;;4.30;49.10;;;;;;5078940;28;20465;-64
2021/12/08 03:14:22;;;;;;;3.63;3.07;;;4.30;51.50;;;;;;5079535;28;20903;-65
2021/12/08 03:16:53;;;;;;;3.50;3.07;;;4.30;19.70;;;;;;5079429;28;20899;-65
2021/12/08 03:19:23;;;;;;;5.00;3.70;;;4.40;1.00;;;;;;5079773;28;20469;-66
2021/12/08 03:21:51;;;;;;;4.20;3.33;;;4.30;1.00;;;;;;5079144;28;20469;-65
2021/12/08 03:24:24;;;;;;;3.77;3.37;;;4.40;1.00;;;;;;5079387;28;20489;-66
2021/12/08 03:27:05;;;;;;;3.57;3.17;;;4.40;1.00;;;;;;5079228;28;20476;-66
2021/12/08 03:29:42;;;;;;;9.27;4.40;;;4.40;1.00;;;;;;5079364;28;20480;-65
2021/12/08 03:32:13;;;;;;;3.60;3.27;;;4.40;1.00;;;;;;5078752;28;20465;-65
2021/12/08 03:34:50;;;;;;;4.10;3.07;;;4.50;1.00;;;;;;5079040;28;20523;-65
2021/12/08 03:37:19;;;;;;;4.60;3.17;;;4.50;1.00;;;;;;5078938;28;20555;-65
2021/12/08 03:39:46;;;;;;;7.37;3.17;;;4.50;1.00;;;;;;5079686;28;20461;-65
2021/12/08 03:42:14;;;;;;;3.50;3.20;;;4.50;7.50;;;;;;5078819;28;20901;-65
2021/12/08 03:44:42;;;;;;;4.40;3.60;;;4.50;47.80;;;;;;5079059;28;20496;-65
2021/12/08 03:47:15;;;;;;;3.83;3.00;;;4.50;50.40;;;;;;5078585;28;20493;-65
2021/12/08 03:49:43;;;;;;;3.30;3.00;;;4.60;73.50;;;;;;5078830;28;20497;-65
2021/12/08 03:52:11;;;;;;;3.60;3.20;;;4.60;26.40;;;;;;5078628;28;20896;-66
2021/12/08 03:54:38;;;;;;;4.27;3.50;;;4.50;19.00;;;;;;5078899;28;20461;-64
2021/12/08 03:57:06;;;;;;;6.60;3.80;;;4.50;46.80;;;;;;5078555;28;20519;-64
2021/12/08 03:59:35;;;;;;;5.40;3.80;;;4.50;73.10;;;;;;5079004;28;20465;-64
2021/12/08 04:02:02;;;;;;;4.40;3.43;;;4.60;48.70;;;;;;5078874;28;20472;-64
2021/12/08 04:04:30;;;;;;;5.40;3.63;;;4.60;51.50;;;;;;5078209;28;20500;-64
2021/12/08 04:07:02;;;;;;;4.73;4.10;;;4.50;85.00;;;;;;5077163;28;20469;-65
2021/12/08 04:09:33;;;;;;;5.10;3.53;;;4.50;85.70;;;;;;5078855;28;20469;-64
2021/12/08 04:12:01;;;;;;;4.37;3.97;;;4.60;99.90;;;;;;5079084;28;20514;-64
2021/12/08 04:14:32;;;;;;;5.60;3.87;;;4.60;99.90;;;;;;5079287;28;20527;-64
2021/12/08 04:17:05;;;;;;;8.43;3.43;;;4.60;99.90;;;;;;5077862;28;20469;-64
2021/12/08 04:19:33;;;;;;;8.50;4.30;;;4.60;99.90;;;;;;5078059;28;20489;-64
2021/12/08 04:22:09;;;;;;;5.70;3.53;;;4.60;99.90;;;;;;5078404;28;20496;-65
2021/12/08 04:24:39;;;;;;;5.47;3.60;;;4.60;99.90;;;;;;5078506;28;20493;-64
2021/12/08 04:27:11;;;;;;;4.23;3.83;;;4.60;99.90;;;;;;5077563;28;20468;-65
2021/12/08 04:29:43;;;;;;;6.53;4.00;;;4.70;99.90;;;;;;5078453;28;20465;-64
2021/12/08 04:32:14;;;;;;;5.47;3.43;;;4.70;99.90;;;;;;5078351;28;20466;-64
2021/12/08 04:34:45;;;;;;;7.80;4.27;;;4.60;99.90;;;;;;5078249;28;20457;-64
2021/12/08 04:37:19;;;;;;;5.13;4.10;;;4.70;99.90;;;;;;5077467;28;20812;-64
2021/12/08 04:39:57;;;;;;;4.90;4.20;;;4.60;99.90;;;;;;5078570;28;20471;-65
2021/12/08 04:42:38;;;;;;;5.20;3.80;;;4.60;99.90;;;;;;5078318;28;20583;-64
2021/12/08 04:45:09;;;;;;;9.47;4.80;;;4.60;99.90;;;;;;5077846;28;20795;-65
2021/12/08 04:47:52;;;;;;;9.37;4.50;;;4.60;99.90;;;;;;5076867;28;20489;-65
2021/12/08 04:50:39;;;;;;;5.73;4.90;;;4.60;99.90;;;;;;5078248;28;20465;-64
2021/12/08 04:53:24;;;;;;;5.27;4.27;;;4.60;99.90;;;;;;5077863;28;20469;-64
2021/12/08 05:01:32;;;;;;;6.30;4.87;;;4.50;99.90;;;;;;5077330;28;20467;-65
2021/12/08 05:04:29;;;;;;;7.33;4.63;;;4.50;99.90;;;;;;5077568;28;20550;-65
2021/12/08 05:07:15;;;;;;;6.33;5.13;;;4.50;99.90;;;;;;5061089;28;20756;-65
2021/12/08 05:09:45;;;;;;;9.00;4.90;;;4.40;99.90;;;;;;5077295;28;20518;-65
2021/12/08 05:12:15;;;;;;;5.10;4.67;;;4.40;99.90;;;;;;5077502;28;20817;-65
2021/12/08 05:14:45;;;;;;;6.23;5.20;;;4.40;99.90;;;;;;5077994;28;20791;-65
2021/12/08 05:17:16;;;;;;;6.43;5.27;;;4.40;99.90;;;;;;5077760;28;20781;-65
2021/12/08 05:19:48;;;;;;;7.10;5.20;;;4.40;99.90;;;;;;5076913;28;20457;-65
2021/12/08 05:22:19;;;;;;;5.37;4.77;;;4.50;99.90;;;;;;5077618;28;20892;-65
2021/12/08 05:24:50;;;;;;;7.37;4.97;;;4.40;99.90;;;;;;5077066;28;20493;-65
2021/12/08 05:27:21;;;;;;;5.50;4.90;;;4.50;99.90;;;;;;5077644;28;20798;-64
2021/12/08 05:29:52;;;;;;;9.93;5.63;;;4.40;99.90;;;;;;5076716;28;20876;-65
2021/12/08 05:32:19;;;;;;;6.47;5.17;;;4.50;99.90;;;;;;5077329;28;20473;-64
2021/12/08 05:34:50;;;;;;;7.37;4.70;;;4.50;99.90;;;;;;5076717;28;20949;-65
2021/12/08 05:37:24;;;;;;;5.70;4.30;;;4.50;99.90;;;;;;5076486;28;20465;-65
2021/12/08 05:39:53;;;;;;;4.90;4.40;;;4.60;99.90;;;;;;5077126;28;20465;-64
2021/12/08 05:42:23;;;;;;;5.20;4.70;;;4.50;99.90;;;;;;5077492;28;20523;-64
2021/12/08 05:44:53;;;;;;;7.40;4.67;;;4.60;99.90;;;;;;5077042;28;20546;-64
2021/12/08 05:47:28;;;;;;;8.20;5.40;;;4.60;99.90;;;;;;5076468;28;20618;-65
2021/12/08 05:49:57;;;;;;;6.80;4.53;;;4.60;99.90;;;;;;5076521;28;20465;-64
2021/12/08 05:52:24;;;;;;;5.80;4.27;;;4.60;99.90;;;;;;5077208;28;20805;-64
2021/12/08 05:54:53;;;;;;;7.60;5.20;;;4.60;99.90;;;;;;5076652;28;20458;-65
2021/12/08 05:57:23;;;;;;;5.87;5.10;;;4.60;99.90;;;;;;5076253;28;20590;-65
2021/12/08 05:59:51;;;;;;;7.20;4.30;;;4.60;99.90;;;;;;5077261;28;20855;-64
2021/12/08 06:02:24;;;;;;;9.30;6.10;;;4.60;99.90;;;;;;5077109;28;20744;-64
2021/12/08 06:04:51;;;;;;;18.40;8.10;;;4.60;99.90;;;;;;5076177;28;20490;-65
2021/12/08 06:07:22;;;;;;;23.20;8.53;;;4.60;99.90;;;;;;5070663;28;20961;-65
2021/12/08 06:09:49;;;;;;;27.37;14.27;;;4.70;99.90;;;;;;5076274;28;20552;-64
2021/12/08 06:12:17;;;;;;;9.77;5.50;;;4.60;90.90;;;;;;5075055;28;20765;-64
2021/12/08 06:14:45;;;;;;;9.80;7.00;;;4.60;80.20;;;;;;5075026;28;20522;-65
2021/12/08 06:17:18;;;;;;;9.30;6.20;;;4.60;60.60;;;;;;5076219;28;20461;-65
2021/12/08 06:19:48;;;;;;;12.90;8.23;;;4.70;99.90;;;;;;5076341;28;20476;-64
2021/12/08 06:22:17;;;;;;;13.50;8.90;;;4.60;92.90;;;;;;5074727;28;20465;-64
2021/12/08 06:24:47;;;;;;;11.70;6.93;;;4.60;99.90;;;;;;5072557;28;20950;-64
2021/12/08 06:27:15;;;;;;;8.40;6.00;;;4.60;99.90;;;;;;5073027;28;20533;-65
2021/12/08 06:29:46;;;;;;;6.40;5.13;;;4.60;99.90;;;;;;5075558;28;20465;-65
2021/12/08 06:32:15;;;;;;;5.90;4.50;;;4.50;99.90;;;;;;5079031;28;20518;-65
2021/12/08 06:34:46;;;;;;;9.47;4.80;;;4.50;99.90;;;;;;5079853;28;20883;-65
2021/12/08 06:37:16;;;;;;;9.40;4.10;;;4.50;99.90;;;;;;5077019;28;20506;-64
2021/12/08 06:39:49;;;;;;;13.57;8.40;;;4.50;99.90;;;;;;5078307;28;20468;-65
2021/12/08 06:42:19;;;;;;;13.93;8.27;;;4.40;99.90;;;;;;5079109;28;20457;-64
2021/12/08 06:44:50;;;;;;;8.20;5.30;;;4.40;99.90;;;;;;5079286;28;20606;-64
2021/12/08 06:47:20;;;;;;;13.30;8.00;;;4.40;99.90;;;;;;5078355;28;21071;-64
2021/12/08 06:49:50;;;;;;;11.47;7.33;;;4.40;99.90;;;;;;5077574;28;21141;-64
2021/12/08 06:52:22;;;;;;;9.30;4.60;;;4.40;99.90;;;;;;5078965;28;20469;-64
2021/12/08 06:54:58;;;;;;;11.43;6.10;;;4.40;99.90;;;;;;5079397;28;20522;-65
2021/12/08 06:57:31;;;;;;;10.87;5.90;;;4.40;99.90;;;;;;5080657;28;20518;-64
2021/12/08 07:00:03;;;;;;;13.93;6.13;;;4.40;99.90;;;;;;5079128;28;20472;-64
2021/12/08 07:02:52;;;;;;;13.03;4.73;;;4.30;99.90;;;;;;5080281;28;20472;-64
2021/12/08 07:05:29;;;;;;;15.10;8.03;;;4.30;99.90;;;;;;5079614;28;20600;-64
2021/12/08 07:08:03;;;;;;;10.73;7.00;;;4.30;99.90;;;;;;5079548;28;20874;-65
2021/12/08 07:10:37;;;;;;;21.20;13.00;;;4.30;99.90;;;;;;5078794;28;20477;-64
2021/12/08 07:13:09;;;;;;;19.23;10.23;;;4.30;99.90;;;;;;5078704;28;20471;-65
2021/12/08 07:15:41;;;;;;;12.57;8.50;;;4.40;99.90;;;;;;5079418;28;20457;-64
2021/12/08 07:18:13;;;;;;;10.93;4.97;;;4.40;99.90;;;;;;5079873;28;20476;-64
2021/12/08 07:20:46;;;;;;;18.10;10.90;;;4.30;99.90;;;;;;5079049;28;20532;-64
2021/12/08 07:23:21;;;;;;;13.80;8.40;;;4.40;99.90;;;;;;5079491;28;20469;-64
2021/12/08 07:25:51;;;;;;;7.23;5.40;;;4.30;99.90;;;;;;5079627;28;20546;-64
2021/12/08 07:28:22;;;;;;;25.40;12.53;;;4.30;99.90;;;;;;5079856;28;20892;-64
2021/12/08 07:30:55;;;;;;;10.10;5.73;;;4.40;99.90;;;;;;5078475;28;20842;-64
2021/12/08 07:33:22;;;;;;;11.77;6.87;;;4.40;99.90;;;;;;5079076;28;20461;-65
2021/12/08 07:35:52;;;;;;;10.87;6.93;;;4.40;99.90;;;;;;5079739;28;20465;-64
2021/12/08 07:38:24;;;;;;;7.03;4.83;;;4.30;99.90;;;;;;5079636;28;20457;-64
2021/12/08 07:40:56;;;;;;;19.40;9.90;;;4.30;99.90;;;;;;5076232;28;20465;-64
2021/12/08 07:43:28;;;;;;;23.20;12.87;;;4.40;99.90;;;;;;5079052;28;20468;-64
2021/12/08 07:46:02;;;;;;;13.47;7.90;;;4.40;99.90;;;;;;5079010;28;20501;-64
2021/12/08 07:48:34;;;;;;;24.97;13.83;;;4.40;99.90;;;;;;5079546;28;20462;-64
2021/12/08 07:51:06;;;;;;;10.93;6.30;;;4.30;99.90;;;;;;5078723;28;20457;-64
2021/12/08 07:53:35;;;;;;;22.50;11.90;;;4.30;99.90;;;;;;5079109;28;20461;-64
2021/12/08 07:56:07;;;;;;;10.50;5.33;;;4.30;99.90;;;;;;5077710;28;20458;-64
2021/12/08 07:58:37;;;;;;;12.53;8.37;;;4.30;99.90;;;;;;5077903;28;20464;-64
2021/12/08 08:01:09;;;;;;;10.47;7.67;;;4.30;99.90;;;;;;5077881;28;20471;-64
2021/12/08 08:03:40;;;;;;;7.30;5.30;;;4.30;99.90;;;;;;5078437;28;20465;-64
2021/12/08 08:06:10;;;;;;;12.80;5.60;;;4.30;99.90;;;;;;5077939;28;20493;-64
2021/12/08 08:08:37;;;;;;;7.20;5.33;;;4.40;99.90;;;;;;5078859;28;20454;-64
2021/12/08 08:11:10;;;;;;;9.00;6.23;;;4.40;99.90;;;;;;5078502;28;20534;-64
2021/12/08 08:13:41;;;;;;;5.20;4.63;;;4.40;99.90;;;;;;5078443;28;21003;-64
2021/12/08 08:16:16;;;;;;;8.03;4.40;;;4.40;99.90;;;;;;5078816;28;20776;-64
2021/12/08 08:18:51;;;;;;;11.97;4.33;;;4.40;99.90;;;;;;5077837;28;20849;-64
2021/12/08 08:21:21;;;;;;;9.07;4.10;;;4.40;99.90;;;;;;5078670;28;20957;-64
2021/12/08 08:23:49;;;;;;;7.40;3.87;;;4.50;99.10;;;;;;5077811;28;20904;-64
2021/12/08 08:26:21;;;;;;;6.10;4.03;;;4.50;36.90;;;;;;5078065;28;20780;-65
2021/12/08 08:28:52;;;;;;;12.43;4.40;;;4.50;1.00;;;;;;5078036;28;20515;-64
2021/12/08 08:31:23;;;;;;;9.33;3.60;;;4.60;1.00;;;;;;5078454;28;20465;-64
2021/12/08 08:33:51;;;;;;;5.77;3.60;;;4.60;1.00;;;;;;5077498;28;20526;-64
2021/12/08 08:36:26;;;;;;;6.63;4.03;;;4.60;1.00;;;;;;5078391;28;20517;-64
2021/12/08 08:38:58;;;;;;;6.30;3.80;;;4.70;99.90;;;;;;5077641;28;20772;-64
2021/12/08 08:41:33;;;;;;;5.87;3.43;;;4.70;99.90;;;;;;5078180;28;20480;-64
2021/12/08 08:44:06;;;;;;;8.60;3.60;;;4.70;1.00;;;;;;5077592;28;20473;-64
2021/12/08 08:46:38;;;;;;;7.70;3.77;;;4.80;99.90;;;;;;5077860;28;20550;-65
2021/12/08 08:49:14;;;;;;;8.50;3.73;;;4.80;1.00;;;;;;5077900;28;20887;-64
2021/12/08 08:51:46;;;;;;;7.90;3.17;;;4.80;99.90;;;;;;5077488;28;20461;-65
2021/12/08 08:54:20;;;;;;;6.63;4.10;;;4.80;99.90;;;;;;5077721;28;20782;-64
2021/12/08 08:56:52;;;;;;;11.27;3.87;;;4.90;99.90;;;;;;5072667;28;20811;-65
2021/12/08 08:59:26;;;;;;;6.40;3.63;;;4.90;99.90;;;;;;5077484;28;20532;-65
2021/12/08 09:01:55;;;;;;;6.53;3.47;;;4.90;1.00;;;;;;5078041;28;20884;-65
2021/12/08 09:04:28;;;;;;;6.90;3.80;;;4.90;1.00;;;;;;5077190;28;20470;-65
2021/12/08 09:07:02;;;;;;;9.60;3.33;;;4.90;1.00;;;;;;5077358;28;20465;-65
2021/12/08 09:09:35;;;;;;;14.47;3.73;;;4.90;99.90;;;;;;5077579;28;20488;-65
2021/12/08 09:12:07;;;;;;;4.90;3.10;;;5.00;99.90;;;;;;5077092;28;20515;-65
2021/12/08 09:14:44;;;;;;;8.50;3.70;;;5.00;99.90;;;;;;5077150;28;20485;-65
2021/12/08 09:17:15;;;;;;;6.87;3.47;;;5.00;99.90;;;;;;5059035;28;20489;-65
2021/12/08 09:19:46;;;;;;;5.17;2.67;;;5.10;99.90;;;;;;5076868;28;20464;-65
2021/12/08 09:22:21;;;;;;;10.70;2.93;;;5.10;99.90;;;;;;5077512;28;20465;-65
2021/12/08 09:24:54;;;;;;;4.67;3.10;;;5.10;58.60;;;;;;5076962;28;20806;-65
2021/12/08 09:27:32;;;;;;;5.50;2.77;;;5.10;1.00;;;;;;5076742;28;20560;-65
2021/12/08 09:30:04;;;;;;;5.43;3.27;;;5.20;1.00;;;;;;5075845;28;20511;-65
2021/12/08 09:32:38;;;;;;;9.00;4.20;;;5.20;1.00;;;;;;5076083;28;20465;-65
2021/12/08 09:35:10;;;;;;;6.30;3.33;;;5.20;1.00;;;;;;5069878;28;20473;-65
2021/12/08 09:37:44;;;;;;;6.30;3.67;;;5.20;1.00;;;;;;5074776;28;20469;-66
2021/12/08 09:40:19;;;;;;;9.17;4.47;;;5.20;1.00;;;;;;5077175;28;20546;-65
2021/12/08 09:42:50;;;;;;;10.27;3.87;;;5.20;1.00;;;;;;5076704;28;20528;-65
2021/12/08 09:45:24;;;;;;;6.50;3.30;;;5.20;1.00;;;;;;5076298;28;20640;-65
2021/12/08 09:47:53;;;;;;;7.97;3.83;;;5.20;1.00;;;;;;5079051;28;20781;-65
2021/12/08 09:50:20;;;;;;;6.80;3.23;;;5.30;1.00;;;;;;5077001;28;20834;-65
2021/12/08 09:52:52;;;;;;;8.40;3.57;;;5.30;1.00;;;;;;5075780;28;20514;-65
2021/12/08 09:55:22;;;;;;;4.50;2.90;;;5.30;99.90;;;;;;5076158;28;20564;-65
2021/12/08 09:57:51;;;;;;;9.07;3.30;;;5.40;99.90;;;;;;5075261;28;20471;-65
2021/12/08 10:00:23;;;;;;;10.77;3.80;;;5.40;99.90;;;;;;5076786;28;20718;-65
2021/12/08 10:02:56;;;;;;;8.37;3.00;;;5.50;99.90;;;;;;5073594;28;20507;-65
2021/12/08 10:05:33;;;;;;;8.23;3.47;;;5.50;99.90;;;;;;5075186;28;20488;-62
2021/12/08 10:08:02;;;;;;;9.50;3.00;;;5.60;99.90;;;;;;5076022;28;20527;-65
2021/12/08 10:10:30;;;;;;;6.00;3.00;;;5.50;99.90;;;;;;5076126;28;20785;-65
2021/12/08 10:13:01;;;;;;;9.23;3.40;;;5.60;99.90;;;;;;5075378;28;20511;-65
2021/12/08 10:15:28;;;;;;;6.87;3.17;;;5.60;99.90;;;;;;5074172;28;20469;-64
2021/12/08 10:17:57;;;;;;;10.67;3.43;;;5.60;99.90;;;;;;5070464;28;20461;-64
2021/12/08 10:20:36;;;;;;;6.93;4.23;;;5.60;99.90;;;;;;5075864;28;20520;-64
2021/12/08 10:23:12;;;;;;;6.20;2.60;;;5.60;99.90;;;;;;5076420;28;20461;-64
2021/12/08 10:25:42;;;;;;;9.73;3.30;;;5.60;99.90;;;;;;5075518;28;20538;-64
2021/12/08 10:28:17;;;;;;;11.17;3.17;;;5.60;99.90;;;;;;5075655;28;20461;-65
2021/12/08 10:30:51;;;;;;;6.47;3.00;;;5.70;99.90;;;;;;5075943;28;20464;-65
2021/12/08 10:33:58;;;;;;;9.27;3.00;;;5.70;99.90;;;;;;5075375;28;20468;-64
2021/12/08 10:39:16;;;;;;;8.33;3.70;;;5.80;99.90;;;;;;5070802;28;20449;-65
2021/12/08 10:41:48;;;;;;;4.53;3.30;;;5.80;99.90;;;;;;5075547;28;20453;-66
2021/12/08 10:44:25;;;;;;;6.27;2.67;;;5.70;99.90;;;;;;5074805;28;20466;-64
2021/12/08 10:46:56;;;;;;;4.70;2.80;;;5.70;99.90;;;;;;5073208;28;20496;-65
2021/12/08 10:54:22;;;;;;;8.57;3.10;;;5.80;99.90;;;;;;5075528;28;20907;-65
2021/12/08 10:55:00;;;;;;;7.50;3.10;;;5.80;99.90;;;;;;5073433;28;20752;-65
2021/12/08 10:57:31;;;;;;;6.70;2.97;;;5.80;99.90;;;;;;5075814;28;20461;-64
2021/12/08 11:00:05;;;;;;;6.00;2.70;;;5.80;91.70;;;;;;5075650;28;20907;-65
2021/12/08 11:02:42;;;;;;;6.40;2.73;;;5.80;85.80;;;;;;5072785;28;20465;-65
2021/12/08 11:05:36;;;;;;;5.43;2.80;;;5.90;57.70;;;;;;5074335;28;20496;-65
2021/12/08 11:08:06;;;;;;;8.70;3.60;;;5.90;82.20;;;;;;5076642;28;20466;-65
2021/12/08 11:10:35;;;;;;;6.63;3.07;;;5.80;66.60;;;;;;5075041;28;20457;-64
2021/12/08 11:13:02;;;;;;;5.80;3.60;;;5.80;78.80;;;;;;5075576;28;20487;-65
2021/12/08 11:15:33;;;;;;;5.40;3.97;;;5.90;99.90;;;;;;5077146;28;20813;-64
2021/12/08 11:18:12;;;;;;;7.10;2.73;;;5.90;78.90;;;;;;5078836;28;20469;-64
2021/12/08 11:20:48;;;;;;;5.80;3.30;;;6.00;99.90;;;;;;5077615;28;20818;-64
2021/12/08 11:23:26;;;;;;;8.87;3.00;;;6.10;80.10;;;;;;5079092;28;20731;-64
2021/12/08 11:25:53;;;;;;;6.30;2.90;;;6.10;68.10;;;;;;5077322;28;20485;-64
2021/12/08 11:28:29;;;;;;;6.13;2.87;;;6.10;27.60;;;;;;5078932;28;20464;-64
2021/12/08 11:31:06;;;;;;;6.73;3.10;;;6.00;20.30;;;;;;5078311;28;20562;-65
2021/12/08 11:33:36;;;;;;;7.13;3.07;;;6.00;23.90;;;;;;5079469;28;20461;-64
2021/12/08 11:36:16;;;;;;;8.23;3.90;;;6.00;25.50;;;;;;5079420;28;20552;-65
2021/12/08 11:38:44;;;;;;;8.03;4.53;;;6.00;15.30;;;;;;5079387;28;20781;-64
2021/12/08 11:41:25;;;;;;;11.93;3.70;;;6.00;27.20;;;;;;5077157;28;20457;-64
2021/12/08 11:43:55;;;;;;;6.93;3.37;;;6.10;34.80;;;;;;5076662;28;20457;-64
2021/12/08 11:46:24;;;;;;;8.07;3.50;;;6.20;1.00;;;;;;5078318;28;20493;-64
2021/12/08 11:49:01;;;;;;;5.10;3.10;;;6.20;1.00;;;;;;5080306;28;20461;-64
2021/12/08 11:51:32;;;;;;;4.30;2.80;;;6.30;1.00;;;;;;5072504;28;20501;-64
2021/12/08 11:54:00;;;;;;;5.50;3.20;;;6.30;1.00;;;;;;5075141;28;20504;-64
2021/12/08 11:56:37;;;;;;;7.10;3.30;;;6.40;1.00;;;;;;5077294;28;20465;-64
2021/12/08 11:59:06;;;;;;;4.07;3.30;;;6.50;1.00;;;;;;5078390;28;20465;-65
2021/12/08 12:01:36;;;;;;;9.70;3.10;;;6.50;1.00;;;;;;5076678;28;20907;-63
2021/12/08 12:04:05;;;;;;;6.10;3.30;;;6.40;1.00;;;;;;5073148;28;20469;-64
2021/12/08 12:06:35;;;;;;;9.07;3.30;;;6.50;1.00;;;;;;5073915;28;20485;-63
2021/12/08 12:09:04;;;;;;;5.20;2.87;;;6.40;1.00;;;;;;5078844;28;20882;-63
2021/12/08 12:11:43;;;;;;;7.20;3.10;;;6.40;1.00;;;;;;5078207;28;20492;-63
2021/12/08 12:14:10;;;;;;;6.10;2.80;;;6.40;1.00;;;;;;5078199;28;20495;-63
2021/12/08 12:16:39;;;;;;;5.13;2.37;;;6.40;1.00;;;;;;5077849;28;20503;-63
2021/12/08 12:19:12;;;;;;;7.80;2.60;;;6.50;1.00;;;;;;5078502;28;20819;-63
2021/12/08 12:21:56;;;;;;;6.40;3.23;;;6.40;1.00;;;;;;5077568;28;20913;-63
2021/12/08 12:24:40;;;;;;;7.67;3.10;;;6.40;1.00;;;;;;5076969;28;20711;-63
2021/12/08 12:27:21;;;;;;;7.03;3.10;;;6.30;1.00;;;;;;5077401;28;20496;-63
2021/12/08 12:30:02;;;;;;;7.00;3.63;;;6.30;1.00;;;;;;5075739;28;20502;-63
2021/12/08 12:32:34;;;;;;;8.20;3.63;;;6.40;1.00;;;;;;5078159;28;20461;-63
2021/12/08 12:35:17;;;;;;;6.30;3.07;;;6.50;1.00;;;;;;5077414;28;20469;-63
2021/12/08 12:37:44;;;;;;;7.90;3.10;;;6.50;1.00;;;;;;5078239;28;20462;-63
2021/12/08 12:40:18;;;;;;;8.53;2.80;;;6.50;1.00;;;;;;5078053;28;20462;-63
2021/12/08 12:42:52;;;;;;;7.17;2.80;;;6.50;1.00;;;;;;5075846;28;20473;-63
2021/12/08 12:45:21;;;;;;;4.57;3.20;;;6.50;1.00;;;;;;5076566;28;20551;-63
2021/12/08 12:48:17;;;;;;;8.50;3.10;;;6.60;1.00;;;;;;5077527;28;20489;-63
2021/12/08 12:51:00;;;;;;;6.00;2.93;;;6.60;1.00;;;;;;5058911;28;20469;-63
2021/12/08 12:53:35;;;;;;;7.13;3.00;;;6.60;1.00;;;;;;5075861;28;20461;-63
2021/12/08 12:56:02;;;;;;;5.03;2.40;;;6.50;1.00;;;;;;5075975;28;20547;-64
2021/12/08 12:58:46;;;;;;;11.97;3.10;;;6.50;1.00;;;;;;5076019;28;20473;-63
2021/12/08 13:01:25;;;;;;;5.50;3.20;;;6.50;1.00;;;;;;5071897;28;20535;-63
2021/12/08 13:03:59;;;;;;;6.20;2.90;;;6.50;1.00;;;;;;5073803;28;20465;-63
2021/12/08 13:06:56;;;;;;;9.83;2.93;;;6.40;1.00;;;;;;5075689;28;20481;-63
2021/12/08 13:09:52;;;;;;;6.97;2.93;;;6.50;1.00;;;;;;5075098;28;20461;-63
2021/12/08 13:12:21;;;;;;;9.03;3.30;;;6.50;1.00;;;;;;5039904;28;20469;-63
2021/12/08 13:15:05;;;;;;;5.73;2.20;;;6.50;1.00;;;;;;5073953;28;20457;-63
2021/12/08 13:17:32;;;;;;;6.40;2.67;;;6.50;1.00;;;;;;5074057;28;20467;-63
2021/12/08 13:20:25;;;;;;;6.97;2.30;;;6.50;1.00;;;;;;5078047;28;20453;-63
2021/12/08 13:22:55;;;;;;;6.10;2.77;;;6.50;1.00;;;;;;5072657;28;20453;-63
2021/12/08 13:25:51;;;;;;;6.67;3.00;;;6.40;1.00;;;;;;5074345;28;20456;-63
2021/12/08 13:28:24;;;;;;;6.03;2.20;;;6.30;1.00;;;;;;5074280;28;20870;-62
2021/12/08 13:30:55;;;;;;;6.77;2.47;;;6.30;1.00;;;;;;5072383;28;20457;-63
2021/12/08 13:33:32;;;;;;;7.50;3.13;;;6.30;1.00;;;;;;5075706;28;20461;-63
2021/12/08 13:36:29;;;;;;;5.00;2.70;;;6.30;1.00;;;;;;5075866;28;20454;-63
2021/12/08 13:39:18;;;;;;;9.27;2.80;;;6.30;1.00;;;;;;5067091;28;20461;-63
2021/12/08 13:41:58;;;;;;;9.63;2.70;;;6.20;1.00;;;;;;5064061;28;20768;-60
2021/12/08 13:44:32;;;;;;;8.13;2.87;;;6.20;1.00;;;;;;5073054;28;20461;-60
2021/12/08 13:47:00;;;;;;;12.40;3.40;;;6.10;1.00;;;;;;5075245;28;20539;-58
2021/12/08 13:49:34;;;;;;;8.17;3.07;;;6.10;1.00;;;;;;5071001;28;20473;-61
2021/12/08 13:52:31;;;;;;;5.50;2.30;;;6.00;1.00;;;;;;5072162;28;20440;-60